createdAt,value
2019-03-20T00:02:22.592Z,17.07
2019-03-20T00:04:53.727Z,16.17
2019-03-20T00:07:24.952Z,20.57
2019-03-20T00:09:56.615Z,18.93
2019-03-20T00:12:27.758Z,18.83
2019-03-20T00:14:58.891Z,17.40
2019-03-20T00:17:30.036Z,18.73
2019-03-20T00:20:01.451Z,17.17
2019-03-20T00:22:32.359Z,17.40
2019-03-20T00:25:03.517Z,17.00
2019-03-20T00:27:34.924Z,17.97
2019-03-20T00:30:06.139Z,16.73
2019-03-20T00:32:37.364Z,18.57
2019-03-20T00:35:08.415Z,16.63
2019-03-20T00:37:39.627Z,14.43
2019-03-20T00:40:12.089Z,21.20
2019-03-20T00:42:43.304Z,20.23
2019-03-20T00:45:14.511Z,17.50
2019-03-20T00:47:45.731Z,17.47
2019-03-20T00:50:16.769Z,16.47
2019-03-20T00:52:48.143Z,20.93
2019-03-20T00:55:19.404Z,15.80
2019-03-20T00:57:50.624Z,17.90
2019-03-20T01:00:21.778Z,19.23
2019-03-20T01:02:53.071Z,21.63
2019-03-20T01:05:24.360Z,17.93
2019-03-20T01:07:55.585Z,16.67
2019-03-20T01:10:26.797Z,18.93
2019-03-20T01:12:57.702Z,19.03
2019-03-20T01:15:28.927Z,18.30
2019-03-20T01:18:00.071Z,21.47
2019-03-20T01:20:31.223Z,22.97
2019-03-20T01:23:02.355Z,19.73
2019-03-20T01:25:35.161Z,23.67
2019-03-20T01:28:06.522Z,25.87
2019-03-20T01:30:38.205Z,25.40
2019-03-20T01:33:10.138Z,25.90
2019-03-20T01:35:41.189Z,22.40
2019-03-20T01:38:12.176Z,19.37
2019-03-20T01:40:43.425Z,24.93
2019-03-20T01:43:14.407Z,20.00
2019-03-20T01:45:45.307Z,21.00
2019-03-20T01:48:16.542Z,21.03
2019-03-20T01:50:48.747Z,21.20
2019-03-20T01:53:19.971Z,21.20
2019-03-20T01:55:50.871Z,21.27
2019-03-20T01:58:22.740Z,19.53
2019-03-20T02:00:54.124Z,20.80
2019-03-20T02:03:25.616Z,24.40
2019-03-20T02:05:57.054Z,24.20
2019-03-20T02:08:28.208Z,25.73
2019-03-20T02:10:59.332Z,24.73
2019-03-20T02:13:30.479Z,23.90
2019-03-20T02:16:01.779Z,30.20
2019-03-20T02:18:32.947Z,23.43
2019-03-20T02:21:04.270Z,24.37
2019-03-20T02:23:35.450Z,28.57
2019-03-20T02:26:06.700Z,23.33
2019-03-20T02:28:37.600Z,20.30
2019-03-20T02:31:08.977Z,21.20
2019-03-20T02:33:40.443Z,27.60
2019-03-20T02:36:11.587Z,21.47
2019-03-20T02:38:42.819Z,21.33
2019-03-20T02:41:13.720Z,23.57
2019-03-20T02:43:44.624Z,24.27
2019-03-20T02:46:16.026Z,25.27
2019-03-20T02:48:47.194Z,25.07
2019-03-20T02:51:18.341Z,27.93
2019-03-20T02:53:49.510Z,27.37
2019-03-20T02:56:20.388Z,28.87
2019-03-20T02:58:51.311Z,29.90
2019-03-20T03:01:22.191Z,27.27
2019-03-20T03:03:53.397Z,27.50
2019-03-20T03:06:24.366Z,28.83
2019-03-20T03:08:55.624Z,27.47
2019-03-20T03:11:27.012Z,29.53
2019-03-20T03:13:58.167Z,35.23
2019-03-20T03:16:29.309Z,28.83
2019-03-20T03:19:00.461Z,28.60
2019-03-20T03:21:31.972Z,34.80
2019-03-20T03:24:02.880Z,30.93
2019-03-20T03:26:34.119Z,33.90
2019-03-20T03:29:05.105Z,33.90
2019-03-20T03:31:36.261Z,30.10
2019-03-20T03:34:07.628Z,31.97
2019-03-20T03:36:38.772Z,27.73
2019-03-20T03:39:09.918Z,28.27
2019-03-20T03:41:41.324Z,29.77
2019-03-20T03:44:12.558Z,32.17
2019-03-20T03:46:43.680Z,30.57
2019-03-20T03:49:14.842Z,29.10
2019-03-20T03:51:46.043Z,29.57
2019-03-20T03:54:16.953Z,33.47
2019-03-20T03:56:48.754Z,29.20
2019-03-20T03:59:20.744Z,33.63
2019-03-20T04:01:51.743Z,30.37
2019-03-20T04:04:22.703Z,28.77
2019-03-20T04:06:53.671Z,28.40
2019-03-20T04:09:24.867Z,33.23
2019-03-20T04:11:56.291Z,35.17
2019-03-20T04:14:27.455Z,35.90
2019-03-20T04:16:58.349Z,28.80
2019-03-20T04:19:29.322Z,29.70
2019-03-20T04:22:01.831Z,30.37
2019-03-20T04:24:32.729Z,35.77
2019-03-20T04:27:03.891Z,35.50
2019-03-20T04:29:35.109Z,33.20
2019-03-20T04:32:06.517Z,34.57
2019-03-20T04:34:37.664Z,31.90
2019-03-20T04:37:08.559Z,37.63
2019-03-20T04:39:39.467Z,35.47
2019-03-20T04:42:10.360Z,30.57
2019-03-20T04:44:41.271Z,33.07
2019-03-20T04:47:12.403Z,32.13
2019-03-20T04:49:43.692Z,30.03
2019-03-20T04:52:14.848Z,33.87
2019-03-20T04:54:46.283Z,33.80
2019-03-20T04:57:17.463Z,36.00
2019-03-20T04:59:48.623Z,35.43
2019-03-20T05:02:19.792Z,32.00
2019-03-20T05:04:50.695Z,32.23
2019-03-20T05:07:22.100Z,30.27
2019-03-20T05:09:53.247Z,29.37
2019-03-20T05:12:24.653Z,32.03
2019-03-20T05:14:55.804Z,29.37
2019-03-20T05:17:26.706Z,31.87
2019-03-20T05:19:57.847Z,32.40
2019-03-20T05:22:28.971Z,37.93
2019-03-20T05:25:00.333Z,32.87
2019-03-20T05:27:31.467Z,37.47
2019-03-20T05:30:02.859Z,35.43
2019-03-20T05:32:36.692Z,32.77
2019-03-20T05:35:09.609Z,34.20
2019-03-20T05:37:40.823Z,34.83
2019-03-20T05:40:12.924Z,33.17
2019-03-20T05:42:44.104Z,34.03
2019-03-20T05:45:15.512Z,29.80
2019-03-20T05:47:46.805Z,33.77
2019-03-20T05:50:18.101Z,31.07
2019-03-20T05:52:49.250Z,31.17
2019-03-20T05:55:20.627Z,31.87
2019-03-20T05:57:51.772Z,31.27
2019-03-20T06:00:23.367Z,32.50
2019-03-20T06:02:54.507Z,31.43
2019-03-20T06:05:27.211Z,37.33
2019-03-20T06:07:58.382Z,35.03
2019-03-20T06:10:32.635Z,35.30
2019-03-20T06:13:03.751Z,36.77
2019-03-20T06:15:34.642Z,35.60
2019-03-20T06:18:05.859Z,36.03
2019-03-20T06:20:36.907Z,32.17
2019-03-20T06:23:08.090Z,36.87
2019-03-20T06:25:39.235Z,32.67
2019-03-20T06:28:10.388Z,35.47
2019-03-20T06:30:41.378Z,32.70
2019-03-20T06:33:12.535Z,30.33
2019-03-20T06:35:43.691Z,33.47
2019-03-20T06:38:14.579Z,37.13
2019-03-20T06:40:45.735Z,32.17
2019-03-20T06:43:16.638Z,35.40
2019-03-20T06:45:47.535Z,31.30
2019-03-20T06:48:18.439Z,32.40
2019-03-20T06:50:49.591Z,34.93
2019-03-20T06:53:20.741Z,32.37
2019-03-20T06:55:51.965Z,32.03
2019-03-20T06:58:23.108Z,32.87
2019-03-20T07:01:21.428Z,35.27
2019-03-20T07:04:24.448Z,33.93
2019-03-20T07:07:18.703Z,38.17
2019-03-20T07:10:16.083Z,32.97
2019-03-20T07:12:47.518Z,34.90
2019-03-20T07:15:18.730Z,36.87
2019-03-20T07:17:49.863Z,30.70
2019-03-20T07:20:21.280Z,36.90
2019-03-20T07:22:52.467Z,37.10
2019-03-20T07:25:24.587Z,38.03
2019-03-20T07:27:55.743Z,36.30
2019-03-20T07:30:26.880Z,37.27
2019-03-20T07:32:58.292Z,41.13
2019-03-20T07:35:29.410Z,37.80
2019-03-20T07:38:00.576Z,43.93
2019-03-20T07:40:31.697Z,41.57
2019-03-20T07:43:08.724Z,37.97
2019-03-20T07:45:35.424Z,40.20
2019-03-20T07:48:06.327Z,38.30
2019-03-20T07:50:37.479Z,37.87
2019-03-20T07:53:08.887Z,47.80
2019-03-20T07:55:39.783Z,41.43
2019-03-20T07:58:10.928Z,49.20
2019-03-20T08:00:42.335Z,39.27
2019-03-20T08:03:13.797Z,45.07
2019-03-20T08:05:44.991Z,39.00
2019-03-20T08:08:16.203Z,36.83
2019-03-20T08:10:50.103Z,41.50
2019-03-20T08:13:21.011Z,42.80
2019-03-20T08:15:51.903Z,41.60
2019-03-20T08:18:24.426Z,44.83
2019-03-20T08:20:55.570Z,41.77
2019-03-20T08:23:26.706Z,44.20
2019-03-20T08:25:57.918Z,41.00
2019-03-20T08:28:29.372Z,39.07
2019-03-20T08:31:00.671Z,41.17
2019-03-20T08:33:31.588Z,41.93
2019-03-20T08:36:03.675Z,45.10
2019-03-20T08:38:34.815Z,48.00
2019-03-20T08:41:06.030Z,49.07
2019-03-20T08:43:37.411Z,44.53
2019-03-20T08:46:08.551Z,39.40
2019-03-20T08:48:39.684Z,43.23
2019-03-20T08:51:10.576Z,47.63
2019-03-20T08:53:41.722Z,51.17
2019-03-20T08:56:12.857Z,45.27
2019-03-20T08:58:43.985Z,53.93
2019-03-20T09:01:15.108Z,50.33
2019-03-20T09:03:46.491Z,52.80
2019-03-20T09:06:17.615Z,45.97
2019-03-20T09:08:48.763Z,50.93
2019-03-20T09:11:19.654Z,54.03
2019-03-20T09:13:51.012Z,51.70
2019-03-20T09:16:21.902Z,57.63
2019-03-20T09:18:52.803Z,62.33
2019-03-20T09:21:24.007Z,50.37
2019-03-20T09:23:55.147Z,50.73
2019-03-20T09:26:26.274Z,57.80
2019-03-20T09:28:57.183Z,56.63
2019-03-20T09:31:28.314Z,67.37
2019-03-20T09:33:59.480Z,60.17
2019-03-20T09:36:30.666Z,62.60
2019-03-20T09:39:01.568Z,57.67
2019-03-20T09:41:36.319Z,61.63
2019-03-20T09:44:07.475Z,58.47
2019-03-20T09:46:38.611Z,67.20
2019-03-20T09:49:09.821Z,63.50
2019-03-20T09:51:40.948Z,64.30
2019-03-20T09:54:12.088Z,60.60
2019-03-20T09:56:42.978Z,59.77
2019-03-20T09:59:14.126Z,61.57
2019-03-20T10:01:45.332Z,59.80
2019-03-20T10:04:16.552Z,63.83
2019-03-20T10:06:47.451Z,64.53
2019-03-20T10:09:18.873Z,61.20
2019-03-20T10:11:49.767Z,59.67
2019-03-20T10:14:21.180Z,62.73
2019-03-20T10:16:52.386Z,75.20
2019-03-20T10:19:23.856Z,59.53
2019-03-20T10:21:55.003Z,60.13
2019-03-20T10:24:26.162Z,65.20
2019-03-20T10:26:57.621Z,63.43
2019-03-20T10:29:28.760Z,62.90
2019-03-20T10:32:00.167Z,65.37
2019-03-20T10:34:39.209Z,62.70
2019-03-20T10:37:03.950Z,61.13
2019-03-20T10:39:34.863Z,69.60
2019-03-20T10:42:06.072Z,68.03
2019-03-20T10:44:37.255Z,63.20
2019-03-20T10:47:08.403Z,66.83
2019-03-20T10:49:39.307Z,63.10
2019-03-20T10:52:10.608Z,61.20
2019-03-20T10:54:41.763Z,65.13
2019-03-20T10:57:12.674Z,57.90
2019-03-20T10:59:43.835Z,62.60
2019-03-20T11:02:15.008Z,65.87
2019-03-20T11:04:46.168Z,60.60
2019-03-20T11:07:17.407Z,59.33
2019-03-20T11:09:48.559Z,64.03
2019-03-20T11:12:19.710Z,61.23
2019-03-20T11:14:50.623Z,57.13
2019-03-20T11:17:21.766Z,57.37
2019-03-20T11:19:53.201Z,53.97
2019-03-20T11:22:24.431Z,52.27
2019-03-20T11:24:55.598Z,52.33
2019-03-20T11:27:27.809Z,53.80
2019-03-20T11:29:59.928Z,50.83
2019-03-20T11:32:30.840Z,50.07
2019-03-20T11:35:02.005Z,56.13
2019-03-20T11:37:34.188Z,46.70
2019-03-20T11:40:07.961Z,52.53
2019-03-20T11:42:40.787Z,54.33
2019-03-20T11:45:12.388Z,50.23
2019-03-20T11:47:43.608Z,44.43
2019-03-20T11:50:23.143Z,46.40
2019-03-20T11:52:54.567Z,52.67
2019-03-20T11:55:26.867Z,50.63
2019-03-20T11:57:58.013Z,46.53
2019-03-20T12:00:29.340Z,47.80
2019-03-20T12:03:00.495Z,46.73
2019-03-20T12:05:31.711Z,42.67
2019-03-20T12:08:04.357Z,40.57
2019-03-20T12:10:35.734Z,41.93
2019-03-20T12:13:07.028Z,45.47
2019-03-20T12:15:38.197Z,44.47
2019-03-20T12:18:09.343Z,44.27
2019-03-20T12:20:40.571Z,36.53
2019-03-20T12:23:11.483Z,44.53
2019-03-20T12:25:42.734Z,39.77
2019-03-20T12:28:13.888Z,43.47
2019-03-20T12:30:45.039Z,39.47
2019-03-20T12:33:16.195Z,42.27
2019-03-20T12:35:47.578Z,43.03
2019-03-20T12:38:18.476Z,37.77
2019-03-20T12:40:49.706Z,40.83
2019-03-20T12:43:20.611Z,40.00
2019-03-20T12:45:51.803Z,42.27
2019-03-20T12:48:23.027Z,46.07
2019-03-20T12:50:54.201Z,46.30
2019-03-20T12:53:28.852Z,40.40
2019-03-20T12:56:00.001Z,45.40
2019-03-20T12:58:30.899Z,43.40
2019-03-20T13:01:01.807Z,38.50
2019-03-20T13:03:32.863Z,39.10
2019-03-20T13:06:04.109Z,42.97
2019-03-20T13:08:35.267Z,41.13
2019-03-20T13:11:06.585Z,39.63
2019-03-20T13:13:37.711Z,41.17
2019-03-20T13:16:09.405Z,41.23
2019-03-20T13:18:41.691Z,42.90
2019-03-20T13:21:13.238Z,44.63
2019-03-20T13:23:44.275Z,35.97
2019-03-20T13:26:15.440Z,41.93
2019-03-20T13:28:46.603Z,43.33
2019-03-20T13:31:19.484Z,44.70
2019-03-20T13:33:53.296Z,34.23
2019-03-20T13:36:24.443Z,39.93
2019-03-20T13:38:56.570Z,41.53
2019-03-20T13:41:27.935Z,39.30
2019-03-20T13:43:59.340Z,39.70
2019-03-20T13:46:30.511Z,37.43
2019-03-20T13:49:01.666Z,40.10
2019-03-20T13:51:32.893Z,39.80
2019-03-20T13:54:03.871Z,38.17
2019-03-20T13:56:35.019Z,39.30
2019-03-20T13:59:06.252Z,36.47
2019-03-20T14:01:37.399Z,41.60
2019-03-20T14:04:08.543Z,42.20
2019-03-20T14:06:39.711Z,37.83
2019-03-20T14:09:10.864Z,39.53
2019-03-20T14:11:42.028Z,37.70
2019-03-20T14:14:12.934Z,39.23
2019-03-20T14:16:44.322Z,42.73
2019-03-20T14:19:15.459Z,44.13
2019-03-20T14:21:46.879Z,41.83
2019-03-20T14:24:18.031Z,38.57
2019-03-20T14:26:49.043Z,36.67
2019-03-20T14:29:20.205Z,38.47
2019-03-20T14:31:51.260Z,36.93
2019-03-20T14:34:22.659Z,33.87
2019-03-20T14:36:54.998Z,38.57
2019-03-20T14:39:25.891Z,34.83
2019-03-20T14:41:57.109Z,40.07
2019-03-20T14:44:28.662Z,39.00
2019-03-20T14:46:59.843Z,34.97
2019-03-20T14:49:31.347Z,35.07
2019-03-20T14:52:04.234Z,38.50
2019-03-20T14:57:39.191Z,35.73
2019-03-20T15:00:14.097Z,39.17
2019-03-20T15:02:45.087Z,35.40
2019-03-20T15:05:16.573Z,40.30
2019-03-20T15:07:48.127Z,35.43
2019-03-20T15:10:20.203Z,38.87
2019-03-20T15:12:51.739Z,36.37
2019-03-20T15:15:32.459Z,35.63
2019-03-20T15:18:03.367Z,37.23
2019-03-20T15:20:34.584Z,36.73
2019-03-20T15:23:05.848Z,38.83
2019-03-20T15:25:37.067Z,35.37
2019-03-20T15:28:08.321Z,34.13
2019-03-20T15:30:39.299Z,36.73
2019-03-20T15:33:13.720Z,39.57
2019-03-20T15:35:45.104Z,31.80
2019-03-20T15:38:16.531Z,32.53
2019-03-20T15:40:55.828Z,35.23
2019-03-20T15:43:21.471Z,35.10
2019-03-20T15:45:52.366Z,29.90
2019-03-20T15:48:23.326Z,31.40
2019-03-20T15:50:54.806Z,29.97
2019-03-20T15:53:25.713Z,32.57
2019-03-20T15:55:56.871Z,30.57
2019-03-20T15:58:28.292Z,33.37
2019-03-20T16:00:59.440Z,31.90
2019-03-20T16:03:31.070Z,34.20
2019-03-20T16:06:02.214Z,32.10
2019-03-20T16:08:33.443Z,37.57
2019-03-20T16:11:06.911Z,29.47
2019-03-20T16:13:37.624Z,30.90
2019-03-20T16:16:08.771Z,34.67
2019-03-20T16:18:39.923Z,32.27
2019-03-20T16:21:10.819Z,34.30
2019-03-20T16:23:41.975Z,36.53
2019-03-20T16:26:12.859Z,33.60
2019-03-20T16:28:44.035Z,36.60
2019-03-20T16:31:14.927Z,33.23
2019-03-20T16:33:46.147Z,32.93
2019-03-20T16:36:17.370Z,36.83
2019-03-20T16:38:52.246Z,35.53
2019-03-20T16:41:23.539Z,34.10
2019-03-20T16:43:54.446Z,38.17
2019-03-20T16:46:25.659Z,33.07
2019-03-20T16:48:57.079Z,33.43
2019-03-20T16:51:28.293Z,32.97
2019-03-20T16:54:00.145Z,35.70
2019-03-20T16:56:31.130Z,35.70
2019-03-20T16:59:02.614Z,36.10
2019-03-20T17:01:33.586Z,33.80
2019-03-20T17:04:04.654Z,40.23
2019-03-20T17:06:35.783Z,33.43
2019-03-20T17:09:07.701Z,39.93
2019-03-20T17:11:39.267Z,38.60
2019-03-20T17:14:10.467Z,41.23
2019-03-20T17:16:42.692Z,35.40
2019-03-20T17:19:15.075Z,35.30
2019-03-20T17:21:46.276Z,38.70
2019-03-20T17:24:17.315Z,35.40
2019-03-20T17:26:48.903Z,36.13
2019-03-20T17:29:19.907Z,37.37
2019-03-20T17:31:50.914Z,35.77
2019-03-20T17:34:25.701Z,44.30
2019-03-20T17:36:56.603Z,37.93
2019-03-20T17:39:27.559Z,40.87
2019-03-20T17:41:58.692Z,39.73
2019-03-20T17:44:29.925Z,39.30
2019-03-20T17:47:02.279Z,41.13
2019-03-20T17:49:35.028Z,38.70
2019-03-20T17:52:06.085Z,41.43
2019-03-20T17:54:38.779Z,40.03
2019-03-20T17:57:12.123Z,37.40
2019-03-20T17:59:43.279Z,43.50
2019-03-20T18:02:23.650Z,40.40
2019-03-20T18:04:47.431Z,69.67
2019-03-20T18:07:18.528Z,39.00
2019-03-20T18:09:49.695Z,38.20
2019-03-20T18:12:21.508Z,42.00
2019-03-20T18:14:53.700Z,34.47
2019-03-20T18:17:24.791Z,35.03
2019-03-20T18:19:56.149Z,36.67
2019-03-20T18:22:27.725Z,44.33
2019-03-20T18:24:59.034Z,39.37
2019-03-20T18:27:30.881Z,37.13
2019-03-20T18:30:03.487Z,36.43
2019-03-20T18:32:34.883Z,38.83
2019-03-20T18:35:06.198Z,39.73
2019-03-20T18:37:37.344Z,42.60
2019-03-20T18:40:09.422Z,35.77
2019-03-20T18:42:41.011Z,37.20
2019-03-20T18:45:12.797Z,44.60
2019-03-20T18:47:44.373Z,43.23
2019-03-20T18:50:16.489Z,41.07
2019-03-20T18:52:47.664Z,43.03
2019-03-20T18:55:19.120Z,41.77
2019-03-20T18:57:50.422Z,35.87
2019-03-20T19:00:23.730Z,36.80
2019-03-20T19:02:55.923Z,36.23
2019-03-20T19:05:30.323Z,36.00
2019-03-20T19:08:01.517Z,37.30
2019-03-20T19:10:33.697Z,38.30
2019-03-20T19:13:05.191Z,37.13
2019-03-20T19:15:36.826Z,34.67
2019-03-20T19:18:08.185Z,38.73
2019-03-20T19:20:39.119Z,38.40
2019-03-20T19:23:10.024Z,38.27
2019-03-20T19:25:43.007Z,34.90
2019-03-20T19:28:14.386Z,40.37
2019-03-20T19:30:45.672Z,38.13
2019-03-20T19:33:16.890Z,33.00
2019-03-20T19:35:48.061Z,36.40
2019-03-20T19:38:19.466Z,33.77
2019-03-20T19:40:50.645Z,34.03
2019-03-20T19:43:22.814Z,37.60
2019-03-20T19:45:53.970Z,30.90
2019-03-20T19:48:25.147Z,28.37
2019-03-20T19:50:56.081Z,34.17
2019-03-20T19:53:27.287Z,28.23
2019-03-20T19:55:58.535Z,32.13
2019-03-20T19:58:29.708Z,34.40
2019-03-20T20:01:01.027Z,32.17
2019-03-20T20:03:31.940Z,33.57
2019-03-20T20:06:03.219Z,38.80
2019-03-20T20:08:35.640Z,33.43
2019-03-20T20:11:07.117Z,30.97
2019-03-20T20:13:38.468Z,34.73
2019-03-20T20:16:09.885Z,33.63
2019-03-20T20:18:40.846Z,31.73
2019-03-20T20:21:12.010Z,34.17
2019-03-20T20:23:44.536Z,31.37
2019-03-20T20:26:15.563Z,33.63
2019-03-20T20:28:46.986Z,30.50
2019-03-20T20:31:17.939Z,33.23
2019-03-20T20:33:48.883Z,31.23
2019-03-20T20:36:19.779Z,30.80
2019-03-20T20:38:51.152Z,31.10
2019-03-20T20:41:22.122Z,32.77
2019-03-20T20:43:53.031Z,30.33
2019-03-20T20:46:24.249Z,32.67
2019-03-20T20:48:55.635Z,30.30
2019-03-20T20:51:27.109Z,27.97
2019-03-20T20:53:58.054Z,29.17
2019-03-20T20:56:28.970Z,31.53
2019-03-20T20:59:00.207Z,30.63
2019-03-20T21:01:31.407Z,28.87
2019-03-20T21:04:02.607Z,30.97
2019-03-20T21:06:34.022Z,33.87
2019-03-20T21:09:08.055Z,28.73
2019-03-20T21:11:39.543Z,29.63
2019-03-20T21:14:10.695Z,27.63
2019-03-20T21:16:42.630Z,29.00
2019-03-20T21:19:39.273Z,30.17
2019-03-20T21:22:48.792Z,29.63
2019-03-20T21:25:21.840Z,30.10
2019-03-20T21:28:43.768Z,32.47
2019-03-20T21:31:25.170Z,32.03
2019-03-20T21:34:27.138Z,26.73
2019-03-20T21:37:41.751Z,28.73
2019-03-20T21:40:15.096Z,30.70
2019-03-20T21:43:22.112Z,33.73
2019-03-20T21:46:42.457Z,27.70
2019-03-20T21:49:15.368Z,29.50
2019-03-20T21:51:47.061Z,30.37
2019-03-20T21:54:53.319Z,33.27
2019-03-20T21:58:14.244Z,31.83
2019-03-20T22:01:26.981Z,32.73
2019-03-20T22:03:58.929Z,32.00
2019-03-20T22:07:05.732Z,31.40
2019-03-20T22:10:14.196Z,28.67
2019-03-20T22:13:17.835Z,28.77
2019-03-20T22:16:28.920Z,28.37
2019-03-20T22:19:44.453Z,31.33
2019-03-20T22:22:58.964Z,28.03
2019-03-20T22:25:58.468Z,25.47
2019-03-20T22:29:29.196Z,25.67
2019-03-20T22:32:50.263Z,25.70
2019-03-20T22:35:43.118Z,25.90
2019-03-20T22:38:42.427Z,23.27
2019-03-20T22:41:37.454Z,20.67
2019-03-20T22:44:09.148Z,27.77
2019-03-20T22:47:21.371Z,25.73
2019-03-20T22:50:18.940Z,27.50
2019-03-20T22:53:49.476Z,34.27
2019-03-20T22:56:56.572Z,24.37
2019-03-20T22:59:32.032Z,25.73
2019-03-20T23:02:33.963Z,23.27
2019-03-20T23:05:07.435Z,20.30
2019-03-20T23:07:39.119Z,24.70
2019-03-20T23:10:12.975Z,29.53
2019-03-20T23:12:44.755Z,26.40
2019-03-20T23:15:17.530Z,31.70
2019-03-20T23:17:49.210Z,25.90
2019-03-20T23:20:23.080Z,28.57
2019-03-20T23:22:55.073Z,26.40
2019-03-20T23:25:26.838Z,23.90
2019-03-20T23:27:59.591Z,22.93
2019-03-20T23:30:31.579Z,16.80
2019-03-20T23:33:03.248Z,18.87
2019-03-20T23:35:34.936Z,17.97
2019-03-20T23:38:06.620Z,19.27
2019-03-20T23:40:42.456Z,20.47
2019-03-20T23:43:15.748Z,19.70
2019-03-20T23:45:47.194Z,21.33
2019-03-20T23:48:40.650Z,19.80
2019-03-20T23:51:14.403Z,21.90
2019-03-20T23:53:48.993Z,21.50
2019-03-20T23:56:20.451Z,20.93
2019-03-20T23:58:52.128Z,16.07
